sensor_id;sensor_type;location;lat;lon;timestamp;pressure;altitude;pressure_sealevel;temperature;humidity
76594;BME280;65482;50.240;14.302;2023-03-23T00:00:35;98932.94;;;9.08;59.83
76594;BME280;65482;50.240;14.302;2023-03-23T00:03:25;98920.13;;;9.21;58.84
76594;BME280;65482;50.240;14.302;2023-03-23T00:06:21;98924.72;;;9.27;59.56
76594;BME280;65482;50.240;14.302;2023-03-23T00:08:54;98940.34;;;9.37;59.03
76594;BME280;65482;50.240;14.302;2023-03-23T00:11:35;98931.78;;;9.43;58.47
76594;BME280;65482;50.240;14.302;2023-03-23T00:14:01;98925.63;;;9.51;58.16
76594;BME280;65482;50.240;14.302;2023-03-23T00:16:32;98928.94;;;9.61;57.73
76594;BME280;65482;50.240;14.302;2023-03-23T00:19:06;98926.59;;;9.66;57.41
76594;BME280;65482;50.240;14.302;2023-03-23T00:21:35;98924.78;;;9.75;57.31
76594;BME280;65482;50.240;14.302;2023-03-23T00:24:04;98930.34;;;9.80;56.71
76594;BME280;65482;50.240;14.302;2023-03-23T00:26:34;98929.66;;;9.86;56.73
76594;BME280;65482;50.240;14.302;2023-03-23T00:29:02;98925.38;;;9.93;56.90
76594;BME280;65482;50.240;14.302;2023-03-23T00:31:33;98932.59;;;10.00;56.37
76594;BME280;65482;50.240;14.302;2023-03-23T00:34:03;98925.81;;;10.05;57.02
76594;BME280;65482;50.240;14.302;2023-03-23T00:36:34;98919.22;;;10.09;56.95
76594;BME280;65482;50.240;14.302;2023-03-23T00:39:03;98917.38;;;10.10;57.34
76594;BME280;65482;50.240;14.302;2023-03-23T00:41:35;98922.66;;;10.10;57.89
76594;BME280;65482;50.240;14.302;2023-03-23T00:44:48;98912.28;;;10.08;57.40
76594;BME280;65482;50.240;14.302;2023-03-23T00:47:36;98912.13;;;10.10;56.96
76594;BME280;65482;50.240;14.302;2023-03-23T00:50:38;98913.56;;;10.12;56.89
76594;BME280;65482;50.240;14.302;2023-03-23T00:53:35;98897.59;;;10.14;56.97
76594;BME280;65482;50.240;14.302;2023-03-23T00:56:33;98900.88;;;10.16;56.76
76594;BME280;65482;50.240;14.302;2023-03-23T00:59:13;98893.16;;;10.14;57.27
76594;BME280;65482;50.240;14.302;2023-03-23T01:01:51;98887.38;;;10.19;56.88
76594;BME280;65482;50.240;14.302;2023-03-23T01:04:19;98881.75;;;10.22;57.02
76594;BME280;65482;50.240;14.302;2023-03-23T01:06:57;98882.22;;;10.26;56.68
76594;BME280;65482;50.240;14.302;2023-03-23T01:09:33;98875.78;;;10.28;56.89
76594;BME280;65482;50.240;14.302;2023-03-23T01:12:13;98880.22;;;10.28;56.49
76594;BME280;65482;50.240;14.302;2023-03-23T01:14:47;98881.88;;;10.29;56.23
76594;BME280;65482;50.240;14.302;2023-03-23T01:17:47;98885.19;;;10.31;56.22
76594;BME280;65482;50.240;14.302;2023-03-23T01:20:30;98882.50;;;10.39;56.96
76594;BME280;65482;50.240;14.302;2023-03-23T01:23:10;98879.50;;;10.42;57.38
76594;BME280;65482;50.240;14.302;2023-03-23T01:25:42;98879.28;;;10.52;56.59
76594;BME280;65482;50.240;14.302;2023-03-23T01:28:44;98870.31;;;10.61;56.17
76594;BME280;65482;50.240;14.302;2023-03-23T01:31:35;98873.06;;;10.68;56.31
76594;BME280;65482;50.240;14.302;2023-03-23T01:34:17;98872.34;;;10.74;56.36
76594;BME280;65482;50.240;14.302;2023-03-23T01:37:06;98871.19;;;10.77;56.13
76594;BME280;65482;50.240;14.302;2023-03-23T01:39:50;98870.03;;;10.79;56.66
76594;BME280;65482;50.240;14.302;2023-03-23T01:42:41;98864.91;;;10.78;56.87
76594;BME280;65482;50.240;14.302;2023-03-23T01:45:34;98860.00;;;10.74;56.59
76594;BME280;65482;50.240;14.302;2023-03-23T01:48:36;98857.38;;;10.74;56.13
76594;BME280;65482;50.240;14.302;2023-03-23T01:51:30;98847.25;;;10.78;55.80
76594;BME280;65482;50.240;14.302;2023-03-23T02:02:55;98853.25;;;10.72;55.91
76594;BME280;65482;50.240;14.302;2023-03-23T02:05:40;98859.16;;;10.74;56.06
76594;BME280;65482;50.240;14.302;2023-03-23T02:08:40;98847.00;;;10.73;56.43
76594;BME280;65482;50.240;14.302;2023-03-23T02:11:16;98848.28;;;10.77;56.77
76594;BME280;65482;50.240;14.302;2023-03-23T02:14:14;98852.91;;;10.75;57.39
76594;BME280;65482;50.240;14.302;2023-03-23T02:23:32;98838.84;;;10.60;57.50
76594;BME280;65482;50.240;14.302;2023-03-23T02:35:00;98834.19;;;10.47;56.42
76594;BME280;65482;50.240;14.302;2023-03-23T02:38:04;98833.53;;;10.45;56.73
76594;BME280;65482;50.240;14.302;2023-03-23T02:40:59;98820.34;;;10.45;56.45
76594;BME280;65482;50.240;14.302;2023-03-23T02:46:46;98823.38;;;10.33;56.87
76594;BME280;65482;50.240;14.302;2023-03-23T02:49:40;98825.38;;;10.31;57.17
76594;BME280;65482;50.240;14.302;2023-03-23T02:52:26;98828.66;;;10.33;56.84
76594;BME280;65482;50.240;14.302;2023-03-23T02:54:59;98825.03;;;10.26;57.49
76594;BME280;65482;50.240;14.302;2023-03-23T02:57:42;98823.06;;;10.28;57.81
76594;BME280;65482;50.240;14.302;2023-03-23T03:00:44;98818.63;;;10.29;57.51
76594;BME280;65482;50.240;14.302;2023-03-23T03:03:44;98820.78;;;10.25;57.89
76594;BME280;65482;50.240;14.302;2023-03-23T03:10:19;98823.75;;;10.22;57.94
76594;BME280;65482;50.240;14.302;2023-03-23T03:19:22;98832.38;;;10.16;58.85
76594;BME280;65482;50.240;14.302;2023-03-23T03:21:59;98830.91;;;10.13;58.37
76594;BME280;65482;50.240;14.302;2023-03-23T03:25:00;98822.84;;;10.15;58.11
76594;BME280;65482;50.240;14.302;2023-03-23T03:27:30;98825.63;;;10.13;57.94
76594;BME280;65482;50.240;14.302;2023-03-23T03:30:19;98823.81;;;10.14;58.51
76594;BME280;65482;50.240;14.302;2023-03-23T03:32:56;98835.00;;;10.16;58.44
76594;BME280;65482;50.240;14.302;2023-03-23T03:35:50;98835.81;;;10.16;58.60
76594;BME280;65482;50.240;14.302;2023-03-23T03:38:46;98829.56;;;10.18;58.68
76594;BME280;65482;50.240;14.302;2023-03-23T03:41:28;98834.66;;;10.19;58.78
76594;BME280;65482;50.240;14.302;2023-03-23T03:44:10;98824.94;;;10.20;58.80
76594;BME280;65482;50.240;14.302;2023-03-23T03:46:54;98822.84;;;10.15;58.94
76594;BME280;65482;50.240;14.302;2023-03-23T03:49:31;98822.19;;;10.13;59.13
76594;BME280;65482;50.240;14.302;2023-03-23T03:52:11;98819.25;;;10.08;59.32
76594;BME280;65482;50.240;14.302;2023-03-23T03:55:04;98815.84;;;9.99;59.00
76594;BME280;65482;50.240;14.302;2023-03-23T03:57:36;98820.47;;;9.97;59.31
76594;BME280;65482;50.240;14.302;2023-03-23T04:00:10;98813.22;;;9.99;59.24
76594;BME280;65482;50.240;14.302;2023-03-23T04:03:12;98819.13;;;10.01;59.22
76594;BME280;65482;50.240;14.302;2023-03-23T04:05:53;98815.97;;;10.06;59.24
76594;BME280;65482;50.240;14.302;2023-03-23T04:12:41;98824.09;;;9.96;60.60
76594;BME280;65482;50.240;14.302;2023-03-23T04:15:11;98804.47;;;9.99;60.41
76594;BME280;65482;50.240;14.302;2023-03-23T04:18:02;98811.88;;;10.03;59.87
76594;BME280;65482;50.240;14.302;2023-03-23T04:21:00;98815.31;;;10.04;60.15
76594;BME280;65482;50.240;14.302;2023-03-23T04:24:11;98813.50;;;10.04;59.89
76594;BME280;65482;50.240;14.302;2023-03-23T04:26:52;98810.69;;;10.06;60.55
76594;BME280;65482;50.240;14.302;2023-03-23T04:29:49;98812.84;;;10.02;60.11
76594;BME280;65482;50.240;14.302;2023-03-23T04:32:54;98814.13;;;10.06;59.88
76594;BME280;65482;50.240;14.302;2023-03-23T04:35:34;98814.44;;;10.11;59.79
76594;BME280;65482;50.240;14.302;2023-03-23T04:38:38;98818.38;;;10.15;59.53
76594;BME280;65482;50.240;14.302;2023-03-23T04:41:36;98811.75;;;10.20;59.69
76594;BME280;65482;50.240;14.302;2023-03-23T04:44:15;98808.75;;;10.31;59.08
76594;BME280;65482;50.240;14.302;2023-03-23T04:47:05;98803.41;;;10.39;59.23
76594;BME280;65482;50.240;14.302;2023-03-23T04:49:48;98801.06;;;10.44;58.20
76594;BME280;65482;50.240;14.302;2023-03-23T04:52:39;98798.88;;;10.71;58.00
76594;BME280;65482;50.240;14.302;2023-03-23T04:55:56;98808.91;;;10.90;56.76
76594;BME280;65482;50.240;14.302;2023-03-23T04:58:34;98811.94;;;11.02;56.31
76594;BME280;65482;50.240;14.302;2023-03-23T05:01:24;98817.31;;;11.09;56.14
76594;BME280;65482;50.240;14.302;2023-03-23T05:04:07;98814.66;;;11.24;55.89
76594;BME280;65482;50.240;14.302;2023-03-23T05:07:16;98814.13;;;11.28;55.63
76594;BME280;65482;50.240;14.302;2023-03-23T05:10:17;98814.75;;;11.45;55.12
76594;BME280;65482;50.240;14.302;2023-03-23T05:12:55;98821.47;;;11.48;55.24
76594;BME280;65482;50.240;14.302;2023-03-23T05:15:47;98823.03;;;11.57;54.60
76594;BME280;65482;50.240;14.302;2023-03-23T05:18:56;98807.00;;;11.59;54.24
76594;BME280;65482;50.240;14.302;2023-03-23T05:22:03;98820.81;;;11.75;53.92
76594;BME280;65482;50.240;14.302;2023-03-23T05:24:47;98812.34;;;11.80;53.62
76594;BME280;65482;50.240;14.302;2023-03-23T05:27:35;98818.25;;;11.97;52.64
76594;BME280;65482;50.240;14.302;2023-03-23T05:30:24;98815.13;;;12.08;52.53
76594;BME280;65482;50.240;14.302;2023-03-23T05:33:24;98804.13;;;12.26;51.72
76594;BME280;65482;50.240;14.302;2023-03-23T05:36:25;98802.13;;;12.28;51.26
76594;BME280;65482;50.240;14.302;2023-03-23T05:39:43;98810.50;;;12.32;51.96
76594;BME280;65482;50.240;14.302;2023-03-23T05:46:00;98818.78;;;12.50;51.28
76594;BME280;65482;50.240;14.302;2023-03-23T05:49:23;98818.22;;;12.55;50.95
76594;BME280;65482;50.240;14.302;2023-03-23T05:52:11;98824.03;;;12.65;50.85
76594;BME280;65482;50.240;14.302;2023-03-23T05:55:17;98825.47;;;12.68;50.92
76594;BME280;65482;50.240;14.302;2023-03-23T05:57:54;98818.38;;;12.75;50.60
76594;BME280;65482;50.240;14.302;2023-03-23T06:01:32;98821.25;;;12.73;50.70
76594;BME280;65482;50.240;14.302;2023-03-23T06:04:20;98814.75;;;12.76;50.59
76594;BME280;65482;50.240;14.302;2023-03-23T06:10:18;98809.94;;;12.86;50.15
76594;BME280;65482;50.240;14.302;2023-03-23T06:13:58;98802.44;;;12.90;49.87
76594;BME280;65482;50.240;14.302;2023-03-23T06:16:27;98809.78;;;12.94;50.30
76594;BME280;65482;50.240;14.302;2023-03-23T06:19:42;98814.75;;;13.04;49.74
76594;BME280;65482;50.240;14.302;2023-03-23T06:22:50;98811.28;;;13.04;49.46
76594;BME280;65482;50.240;14.302;2023-03-23T06:25:59;98813.59;;;13.13;49.22
76594;BME280;65482;50.240;14.302;2023-03-23T08:23:06;98842.59;;;18.77;38.61
76594;BME280;65482;50.240;14.302;2023-03-23T08:36:53;98843.53;;;19.53;37.81
76594;BME280;65482;50.240;14.302;2023-03-23T08:40:22;98837.41;;;19.41;38.05
76594;BME280;65482;50.240;14.302;2023-03-23T08:43:51;98835.69;;;19.23;37.13
76594;BME280;65482;50.240;14.302;2023-03-23T08:59:18;98833.13;;;19.16;35.84
76594;BME280;65482;50.240;14.302;2023-03-23T09:10:03;98831.25;;;18.81;36.43
76594;BME280;65482;50.240;14.302;2023-03-23T09:33:58;98819.50;;;19.41;35.69
76594;BME280;65482;50.240;14.302;2023-03-23T09:36:41;98809.56;;;19.77;35.05
76594;BME280;65482;50.240;14.302;2023-03-23T10:05:40;98833.06;;;21.12;43.70
76594;BME280;65482;50.240;14.302;2023-03-23T10:28:56;98839.25;;;23.05;39.96
76594;BME280;65482;50.240;14.302;2023-03-23T10:31:35;98838.75;;;23.60;38.60
76594;BME280;65482;50.240;14.302;2023-03-23T10:34:10;98834.59;;;23.95;35.76
76594;BME280;65482;50.240;14.302;2023-03-23T10:36:56;98836.66;;;23.73;30.88
76594;BME280;65482;50.240;14.302;2023-03-23T10:39:43;98832.13;;;23.31;32.63
76594;BME280;65482;50.240;14.302;2023-03-23T10:42:31;98835.28;;;23.17;32.00
76594;BME280;65482;50.240;14.302;2023-03-23T10:45:31;98829.25;;;23.00;32.22
76594;BME280;65482;50.240;14.302;2023-03-23T10:52:59;98827.66;;;22.72;31.90
76594;BME280;65482;50.240;14.302;2023-03-23T10:55:39;98829.59;;;23.09;37.67
76594;BME280;65482;50.240;14.302;2023-03-23T10:58:09;98825.88;;;23.68;36.46
76594;BME280;65482;50.240;14.302;2023-03-23T11:00:42;98826.59;;;24.16;35.71
76594;BME280;65482;50.240;14.302;2023-03-23T11:05:53;98832.00;;;24.47;34.49
76594;BME280;65482;50.240;14.302;2023-03-23T11:08:25;98831.50;;;24.55;34.21
76594;BME280;65482;50.240;14.302;2023-03-23T11:10:57;98824.78;;;24.63;34.05
76594;BME280;65482;50.240;14.302;2023-03-23T11:13:31;98826.94;;;24.66;33.84
76594;BME280;65482;50.240;14.302;2023-03-23T11:15:58;98818.84;;;24.76;33.95
76594;BME280;65482;50.240;14.302;2023-03-23T11:18:34;98824.75;;;24.73;33.97
76594;BME280;65482;50.240;14.302;2023-03-23T11:21:01;98828.56;;;24.72;34.21
76594;BME280;65482;50.240;14.302;2023-03-23T11:23:33;98828.56;;;24.72;33.97
76594;BME280;65482;50.240;14.302;2023-03-23T11:26:23;98834.19;;;24.80;33.84
76594;BME280;65482;50.240;14.302;2023-03-23T11:28:58;98832.06;;;24.88;33.74
76594;BME280;65482;50.240;14.302;2023-03-23T11:31:45;98829.88;;;24.85;33.83
76594;BME280;65482;50.240;14.302;2023-03-23T11:34:22;98836.38;;;24.84;33.76
76594;BME280;65482;50.240;14.302;2023-03-23T11:36:52;98835.81;;;24.76;33.75
76594;BME280;65482;50.240;14.302;2023-03-23T11:41:53;98840.94;;;24.63;31.62
76594;BME280;65482;50.240;14.302;2023-03-23T11:44:23;98836.28;;;24.12;29.48
76594;BME280;65482;50.240;14.302;2023-03-23T11:54:09;98823.88;;;22.13;32.08
76594;BME280;65482;50.240;14.302;2023-03-23T11:57:09;98816.47;;;21.76;32.48
76594;BME280;65482;50.240;14.302;2023-03-23T12:34:37;98826.84;;;19.22;37.28
76594;BME280;65482;50.240;14.302;2023-03-23T12:42:35;98825.34;;;19.26;37.71
76594;BME280;65482;50.240;14.302;2023-03-23T12:45:23;98820.34;;;19.30;37.76
76594;BME280;65482;50.240;14.302;2023-03-23T12:48:06;98821.59;;;19.16;37.33
76594;BME280;65482;50.240;14.302;2023-03-23T12:53:33;98805.25;;;19.12;37.63
76594;BME280;65482;50.240;14.302;2023-03-23T12:56:16;98813.13;;;18.95;38.02
76594;BME280;65482;50.240;14.302;2023-03-23T13:25:13;98809.59;;;18.71;39.16
76594;BME280;65482;50.240;14.302;2023-03-23T13:27:59;98797.97;;;18.65;39.26
76594;BME280;65482;50.240;14.302;2023-03-23T13:30:36;98802.72;;;18.63;39.23
76594;BME280;65482;50.240;14.302;2023-03-23T13:33:05;98811.44;;;18.59;39.61
76594;BME280;65482;50.240;14.302;2023-03-23T13:35:35;98809.47;;;18.66;39.68
76594;BME280;65482;50.240;14.302;2023-03-23T13:38:13;98798.19;;;18.64;39.63
76594;BME280;65482;50.240;14.302;2023-03-23T13:40:44;98801.44;;;18.66;39.58
76594;BME280;65482;50.240;14.302;2023-03-23T13:43:11;98794.72;;;18.63;39.59
76594;BME280;65482;50.240;14.302;2023-03-23T13:45:47;98801.38;;;18.73;39.47
76594;BME280;65482;50.240;14.302;2023-03-23T13:51:00;98816.44;;;18.67;39.78
76594;BME280;65482;50.240;14.302;2023-03-23T13:53:46;98816.91;;;18.64;39.86
76594;BME280;65482;50.240;14.302;2023-03-23T13:56:36;98821.00;;;18.66;39.99
76594;BME280;65482;50.240;14.302;2023-03-23T13:59:16;98816.09;;;18.63;40.08
76594;BME280;65482;50.240;14.302;2023-03-23T14:01:45;98814.13;;;18.71;40.23
76594;BME280;65482;50.240;14.302;2023-03-23T14:04:31;98814.63;;;18.79;40.11
76594;BME280;65482;50.240;14.302;2023-03-23T14:07:09;98815.06;;;18.76;40.03
76594;BME280;65482;50.240;14.302;2023-03-23T14:09:40;98814.41;;;18.81;39.99
76594;BME280;65482;50.240;14.302;2023-03-23T14:12:20;98815.75;;;18.72;40.86
76594;BME280;65482;50.240;14.302;2023-03-23T14:14:55;98806.16;;;18.82;39.90
76594;BME280;65482;50.240;14.302;2023-03-23T14:17:31;98807.97;;;18.70;39.76
76594;BME280;65482;50.240;14.302;2023-03-23T14:19:59;98796.50;;;18.81;39.88
76594;BME280;65482;50.240;14.302;2023-03-23T14:22:46;98798.34;;;18.69;39.82
76594;BME280;65482;50.240;14.302;2023-03-23T14:25:18;98789.03;;;18.60;40.13
76594;BME280;65482;50.240;14.302;2023-03-23T14:27:46;98805.53;;;18.68;40.39
76594;BME280;65482;50.240;14.302;2023-03-23T14:30:19;98806.97;;;18.83;40.02
76594;BME280;65482;50.240;14.302;2023-03-23T14:32:45;98810.34;;;18.90;40.42
76594;BME280;65482;50.240;14.302;2023-03-23T14:35:35;98807.09;;;19.00;40.32
76594;BME280;65482;50.240;14.302;2023-03-23T14:38:16;98804.88;;;19.08;40.09
76594;BME280;65482;50.240;14.302;2023-03-23T14:40:54;98808.25;;;19.16;39.67
76594;BME280;65482;50.240;14.302;2023-03-23T14:43:25;98816.75;;;19.24;39.50
76594;BME280;65482;50.240;14.302;2023-03-23T14:45:56;98819.41;;;19.13;39.91
76594;BME280;65482;50.240;14.302;2023-03-23T14:48:23;98810.47;;;19.07;39.98
76594;BME280;65482;50.240;14.302;2023-03-23T14:50:51;98812.69;;;18.98;39.89
76594;BME280;65482;50.240;14.302;2023-03-23T14:53:39;98805.13;;;18.95;40.00
76594;BME280;65482;50.240;14.302;2023-03-23T14:56:15;98814.19;;;18.94;40.16
76594;BME280;65482;50.240;14.302;2023-03-23T14:58:47;98798.38;;;18.81;39.95
76594;BME280;65482;50.240;14.302;2023-03-23T15:01:18;98804.97;;;18.66;40.32
76594;BME280;65482;50.240;14.302;2023-03-23T15:04:01;98804.38;;;18.64;40.68
76594;BME280;65482;50.240;14.302;2023-03-23T15:06:29;98804.69;;;18.68;40.54
76594;BME280;65482;50.240;14.302;2023-03-23T15:08:58;98799.50;;;18.73;40.40
76594;BME280;65482;50.240;14.302;2023-03-23T15:11:30;98794.50;;;18.77;40.39
76594;BME280;65482;50.240;14.302;2023-03-23T15:13:59;98784.16;;;18.68;40.81
76594;BME280;65482;50.240;14.302;2023-03-23T15:16:32;98781.94;;;18.65;40.51
76594;BME280;65482;50.240;14.302;2023-03-23T15:19:02;98790.16;;;18.52;41.19
76594;BME280;65482;50.240;14.302;2023-03-23T15:21:32;98783.06;;;18.46;41.45
76594;BME280;65482;50.240;14.302;2023-03-23T15:24:00;98790.84;;;18.36;41.61
76594;BME280;65482;50.240;14.302;2023-03-23T15:26:30;98795.56;;;18.22;42.27
76594;BME280;65482;50.240;14.302;2023-03-23T15:31:38;98815.53;;;17.89;43.02
76594;BME280;65482;50.240;14.302;2023-03-23T15:34:04;98806.13;;;17.98;43.23
76594;BME280;65482;50.240;14.302;2023-03-23T15:36:34;98816.47;;;17.95;43.03
76594;BME280;65482;50.240;14.302;2023-03-23T15:39:01;98824.69;;;17.93;43.00
76594;BME280;65482;50.240;14.302;2023-03-23T15:41:28;98832.41;;;17.83;43.32
76594;BME280;65482;50.240;14.302;2023-03-23T15:44:10;98849.41;;;17.82;43.72
76594;BME280;65482;50.240;14.302;2023-03-23T15:46:48;98849.81;;;17.67;43.68
76594;BME280;65482;50.240;14.302;2023-03-23T15:49:16;98845.00;;;17.57;44.00
76594;BME280;65482;50.240;14.302;2023-03-23T15:51:41;98850.69;;;17.42;44.23
76594;BME280;65482;50.240;14.302;2023-03-23T15:54:12;98853.81;;;17.39;44.24
76594;BME280;65482;50.240;14.302;2023-03-23T15:56:38;98852.91;;;17.27;44.82
76594;BME280;65482;50.240;14.302;2023-03-23T15:59:04;98841.56;;;17.32;44.69
76594;BME280;65482;50.240;14.302;2023-03-23T16:01:30;98849.56;;;17.32;44.92
76594;BME280;65482;50.240;14.302;2023-03-23T16:04:08;98844.25;;;17.06;45.43
76594;BME280;65482;50.240;14.302;2023-03-23T16:06:35;98846.28;;;17.11;45.53
76594;BME280;65482;50.240;14.302;2023-03-23T16:09:03;98850.44;;;17.07;45.44
76594;BME280;65482;50.240;14.302;2023-03-23T16:11:30;98852.63;;;17.10;45.26
76594;BME280;65482;50.240;14.302;2023-03-23T16:13:57;98845.63;;;17.16;45.24
76594;BME280;65482;50.240;14.302;2023-03-23T16:16:24;98830.94;;;17.06;45.70
76594;BME280;65482;50.240;14.302;2023-03-23T16:18:52;98834.66;;;17.05;45.81
76594;BME280;65482;50.240;14.302;2023-03-23T16:21:17;98846.72;;;17.08;45.51
76594;BME280;65482;50.240;14.302;2023-03-23T16:23:43;98849.00;;;17.04;45.78
76594;BME280;65482;50.240;14.302;2023-03-23T16:26:12;98857.25;;;16.96;46.01
76594;BME280;65482;50.240;14.302;2023-03-23T16:28:39;98852.75;;;16.97;45.89
76594;BME280;65482;50.240;14.302;2023-03-23T16:31:05;98858.66;;;16.99;45.49
76594;BME280;65482;50.240;14.302;2023-03-23T16:33:31;98866.31;;;16.95;45.59
76594;BME280;65482;50.240;14.302;2023-03-23T16:35:57;98877.81;;;16.89;46.21
76594;BME280;65482;50.240;14.302;2023-03-23T16:38:23;98877.19;;;16.87;45.82
76594;BME280;65482;50.240;14.302;2023-03-23T16:40:49;98882.78;;;16.79;45.92
76594;BME280;65482;50.240;14.302;2023-03-23T16:43:14;98879.13;;;16.73;46.16
76594;BME280;65482;50.240;14.302;2023-03-23T16:45:42;98885.66;;;16.77;46.19
76594;BME280;65482;50.240;14.302;2023-03-23T16:48:08;98886.75;;;16.69;46.57
76594;BME280;65482;50.240;14.302;2023-03-23T16:50:35;98895.53;;;16.70;46.43
76594;BME280;65482;50.240;14.302;2023-03-23T16:53:02;98893.75;;;16.57;46.87
76594;BME280;65482;50.240;14.302;2023-03-23T16:55:29;98877.19;;;16.55;47.08
76594;BME280;65482;50.240;14.302;2023-03-23T16:57:56;98883.63;;;16.47;47.41
76594;BME280;65482;50.240;14.302;2023-03-23T17:00:21;98877.25;;;16.48;47.11
76594;BME280;65482;50.240;14.302;2023-03-23T17:02:49;98873.81;;;16.41;47.38
76594;BME280;65482;50.240;14.302;2023-03-23T17:05:23;98875.22;;;16.44;47.45
76594;BME280;65482;50.240;14.302;2023-03-23T17:07:50;98877.50;;;16.40;47.58
76594;BME280;65482;50.240;14.302;2023-03-23T17:10:16;98864.00;;;16.35;47.89
76594;BME280;65482;50.240;14.302;2023-03-23T17:12:42;98878.16;;;16.36;47.51
76594;BME280;65482;50.240;14.302;2023-03-23T17:15:09;98882.44;;;16.37;47.50
76594;BME280;65482;50.240;14.302;2023-03-23T17:17:36;98892.50;;;16.28;47.66
76594;BME280;65482;50.240;14.302;2023-03-23T17:20:03;98881.88;;;16.28;47.78
76594;BME280;65482;50.240;14.302;2023-03-23T17:22:30;98890.25;;;16.25;48.08
76594;BME280;65482;50.240;14.302;2023-03-23T17:24:56;98897.84;;;16.28;47.78
76594;BME280;65482;50.240;14.302;2023-03-23T17:27:22;98903.38;;;16.26;48.20
76594;BME280;65482;50.240;14.302;2023-03-23T17:29:49;98903.81;;;16.17;48.18
76594;BME280;65482;50.240;14.302;2023-03-23T17:32:15;98909.13;;;16.17;48.46
76594;BME280;65482;50.240;14.302;2023-03-23T17:34:41;98911.78;;;16.17;48.51
76594;BME280;65482;50.240;14.302;2023-03-23T17:37:07;98909.00;;;15.98;48.55
76594;BME280;65482;50.240;14.302;2023-03-23T17:39:33;98911.22;;;16.08;48.60
76594;BME280;65482;50.240;14.302;2023-03-23T17:41:59;98915.94;;;16.06;48.38
76594;BME280;65482;50.240;14.302;2023-03-23T17:44:25;98913.91;;;16.01;48.93
76594;BME280;65482;50.240;14.302;2023-03-23T17:46:52;98916.56;;;16.08;48.39
76594;BME280;65482;50.240;14.302;2023-03-23T17:49:22;98920.22;;;16.07;48.71
76594;BME280;65482;50.240;14.302;2023-03-23T17:51:48;98923.13;;;15.99;48.65
76594;BME280;65482;50.240;14.302;2023-03-23T17:54:14;98927.03;;;15.96;48.65
76594;BME280;65482;50.240;14.302;2023-03-23T17:56:39;98927.63;;;15.98;48.84
76594;BME280;65482;50.240;14.302;2023-03-23T17:59:05;98923.31;;;15.97;49.03
76594;BME280;65482;50.240;14.302;2023-03-23T18:01:32;98927.84;;;15.97;49.06
76594;BME280;65482;50.240;14.302;2023-03-23T18:03:58;98927.03;;;15.89;49.39
76594;BME280;65482;50.240;14.302;2023-03-23T18:06:23;98929.69;;;15.89;48.95
76594;BME280;65482;50.240;14.302;2023-03-23T18:08:49;98930.53;;;15.83;49.17
76594;BME280;65482;50.240;14.302;2023-03-23T18:11:15;98934.22;;;15.82;48.90
76594;BME280;65482;50.240;14.302;2023-03-23T18:13:41;98938.09;;;15.86;48.99
76594;BME280;65482;50.240;14.302;2023-03-23T18:16:06;98938.50;;;15.83;48.88
76594;BME280;65482;50.240;14.302;2023-03-23T18:18:33;98942.19;;;15.89;49.00
76594;BME280;65482;50.240;14.302;2023-03-23T18:21:02;98941.16;;;15.90;48.71
76594;BME280;65482;50.240;14.302;2023-03-23T18:23:29;98934.41;;;15.87;49.10
76594;BME280;65482;50.240;14.302;2023-03-23T18:26:05;98946.25;;;15.91;48.90
76594;BME280;65482;50.240;14.302;2023-03-23T18:28:32;98941.16;;;15.90;49.01
76594;BME280;65482;50.240;14.302;2023-03-23T18:31:12;98941.78;;;15.85;49.29
76594;BME280;65482;50.240;14.302;2023-03-23T18:33:39;98937.28;;;15.86;48.90
76594;BME280;65482;50.240;14.302;2023-03-23T18:36:07;98947.69;;;15.87;48.85
76594;BME280;65482;50.240;14.302;2023-03-23T18:38:34;98945.66;;;15.83;49.10
76594;BME280;65482;50.240;14.302;2023-03-23T18:41:00;98945.88;;;15.81;49.16
76594;BME280;65482;50.240;14.302;2023-03-23T18:43:26;98951.63;;;15.78;48.91
76594;BME280;65482;50.240;14.302;2023-03-23T18:45:54;98951.00;;;15.76;49.13
76594;BME280;65482;50.240;14.302;2023-03-23T18:48:22;98953.25;;;15.73;49.19
76594;BME280;65482;50.240;14.302;2023-03-23T18:50:52;98944.03;;;15.68;49.23
76594;BME280;65482;50.240;14.302;2023-03-23T18:53:19;98952.44;;;15.59;49.33
76594;BME280;65482;50.240;14.302;2023-03-23T18:55:46;98949.38;;;15.55;49.15
76594;BME280;65482;50.240;14.302;2023-03-23T18:58:14;98948.56;;;15.55;49.05
76594;BME280;65482;50.240;14.302;2023-03-23T19:00:40;98954.06;;;15.53;49.37
76594;BME280;65482;50.240;14.302;2023-03-23T19:03:07;98955.91;;;15.52;49.13
76594;BME280;65482;50.240;14.302;2023-03-23T19:05:35;98956.34;;;15.56;49.15
76594;BME280;65482;50.240;14.302;2023-03-23T19:08:01;98954.88;;;15.54;49.34
76594;BME280;65482;50.240;14.302;2023-03-23T19:10:28;98962.47;;;15.57;48.91
76594;BME280;65482;50.240;14.302;2023-03-23T19:12:54;98961.03;;;15.54;49.27
76594;BME280;65482;50.240;14.302;2023-03-23T19:15:20;98962.47;;;15.57;49.13
76594;BME280;65482;50.240;14.302;2023-03-23T19:17:46;98966.13;;;15.56;49.48
76594;BME280;65482;50.240;14.302;2023-03-23T19:20:12;98967.38;;;15.53;49.40
76594;BME280;65482;50.240;14.302;2023-03-23T19:22:38;98962.03;;;15.53;49.44
76594;BME280;65482;50.240;14.302;2023-03-23T19:25:07;98962.03;;;15.53;49.53
76594;BME280;65482;50.240;14.302;2023-03-23T19:27:36;98961.44;;;15.51;49.51
76594;BME280;65482;50.240;14.302;2023-03-23T19:30:03;98956.53;;;15.48;49.38
76594;BME280;65482;50.240;14.302;2023-03-23T19:32:32;98961.25;;;15.46;49.55
76594;BME280;65482;50.240;14.302;2023-03-23T19:34:57;98964.31;;;15.43;49.65
76594;BME280;65482;50.240;14.302;2023-03-23T19:37:23;98955.72;;;15.41;50.22
76594;BME280;65482;50.240;14.302;2023-03-23T19:39:49;98955.31;;;15.37;49.78
76594;BME280;65482;50.240;14.302;2023-03-23T19:42:15;98954.50;;;15.37;50.11